createdAt,value
2023-02-13T00:01:08.482Z,69.05
2023-02-13T00:03:43.733Z,69.03
2023-02-13T00:06:11.043Z,69.25
2023-02-13T00:08:38.096Z,69.39
2023-02-13T00:11:06.640Z,69.66
2023-02-13T00:13:35.586Z,69.54
2023-02-13T00:16:05.266Z,69.68
2023-02-13T00:18:36.566Z,69.62
2023-02-13T00:21:06.730Z,69.53
2023-02-13T00:23:34.504Z,69.25
2023-02-13T00:26:04.611Z,69.73
2023-02-13T00:28:35.800Z,69.75
2023-02-13T00:31:09.913Z,69.68
2023-02-13T00:33:37.583Z,69.72
2023-02-13T00:36:08.335Z,70.04
2023-02-13T00:38:37.905Z,69.55
2023-02-13T00:41:06.570Z,69.94
2023-02-13T00:43:34.912Z,69.87
2023-02-13T00:46:03.869Z,69.80
2023-02-13T00:48:31.881Z,70.23
2023-02-13T00:50:59.534Z,70.13
2023-02-13T00:53:27.145Z,70.08
2023-02-13T00:55:54.023Z,70.25
2023-02-13T00:58:22.942Z,69.89
2023-02-13T01:00:52.314Z,70.15
2023-02-13T01:03:19.586Z,70.14
2023-02-13T01:05:48.295Z,69.71
2023-02-13T01:08:16.332Z,69.81
2023-02-13T01:10:45.264Z,69.83
2023-02-13T01:13:14.084Z,69.85
2023-02-13T01:15:41.188Z,69.70
2023-02-13T01:18:14.625Z,69.95
2023-02-13T01:20:43.481Z,70.16
2023-02-13T01:23:10.734Z,70.21
2023-02-13T01:25:41.365Z,70.15
2023-02-13T01:28:08.424Z,70.22
2023-02-13T01:30:37.801Z,70.27
2023-02-13T01:33:04.761Z,70.38
2023-02-13T01:35:33.222Z,70.09
2023-02-13T01:38:00.238Z,70.16
2023-02-13T01:40:29.549Z,70.11
2023-02-13T01:42:57.842Z,69.97
2023-02-13T01:45:27.754Z,70.17
2023-02-13T01:48:00.789Z,70.28
2023-02-13T01:50:52.954Z,70.16
2023-02-13T01:53:23.625Z,70.35
2023-02-13T01:56:19.975Z,70.43
2023-02-13T01:58:49.247Z,70.40
2023-02-13T02:01:20.373Z,70.47
2023-02-13T02:03:59.037Z,70.87
2023-02-13T02:06:31.075Z,70.84
2023-02-13T02:09:01.802Z,70.64
2023-02-13T02:12:01.693Z,70.88
2023-02-13T02:14:30.370Z,71.03
2023-02-13T02:17:03.039Z,70.84
2023-02-13T02:19:30.340Z,71.03
2023-02-13T02:22:22.721Z,70.64
2023-02-13T02:25:39.350Z,70.73
2023-02-13T02:28:20.544Z,70.84
2023-02-13T02:31:14.164Z,70.69
2023-02-13T02:34:07.509Z,70.69
2023-02-13T02:36:43.237Z,70.78
2023-02-13T02:39:20.501Z,71.20
2023-02-13T02:42:03.471Z,71.14
2023-02-13T02:44:54.334Z,71.24
2023-02-13T02:47:57.555Z,70.89
2023-02-13T02:50:34.201Z,70.79
2023-02-13T02:53:05.568Z,70.65
2023-02-13T02:55:55.158Z,70.31
2023-02-13T02:59:04.191Z,70.50
2023-02-13T03:01:51.160Z,70.60
2023-02-13T03:04:38.944Z,70.44
2023-02-13T03:07:07.711Z,70.52
2023-02-13T03:10:01.923Z,70.71
2023-02-13T03:13:03.136Z,70.77
2023-02-13T03:15:30.383Z,70.62
2023-02-13T03:18:16.391Z,70.80
2023-02-13T03:21:13.901Z,70.72
2023-02-13T03:24:02.276Z,71.27
2023-02-13T03:26:45.636Z,71.25
2023-02-13T03:29:43.280Z,70.80
2023-02-13T03:32:35.732Z,71.03
2023-02-13T03:35:40.611Z,71.26
2023-02-13T03:38:30.946Z,70.96
2023-02-13T03:41:20.143Z,70.98
2023-02-13T03:44:09.630Z,71.50
2023-02-13T03:46:41.474Z,71.19
2023-02-13T03:49:36.555Z,71.49
2023-02-13T03:52:31.544Z,71.27
2023-02-13T03:55:31.721Z,71.02
2023-02-13T03:58:21.049Z,71.45
2023-02-13T04:00:50.335Z,71.52
2023-02-13T04:03:30.687Z,71.47
2023-02-13T04:06:03.287Z,71.46
2023-02-13T04:08:30.220Z,71.53
2023-02-13T04:11:18.076Z,71.56
2023-02-13T04:13:46.967Z,71.43
2023-02-13T04:16:29.119Z,71.21
2023-02-13T04:18:56.247Z,71.19
2023-02-13T04:21:23.088Z,71.19
2023-02-13T04:23:51.498Z,71.04
2023-02-13T04:26:20.911Z,71.10
2023-02-13T04:28:48.063Z,70.97
2023-02-13T04:31:15.286Z,71.01
2023-02-13T04:33:43.394Z,71.06
2023-02-13T04:36:10.466Z,71.12
2023-02-13T04:38:37.864Z,71.18
2023-02-13T04:41:04.888Z,71.25
2023-02-13T04:43:32.471Z,71.54
2023-02-13T04:45:59.399Z,71.56
2023-02-13T04:48:27.859Z,71.12
2023-02-13T04:50:54.850Z,70.98
2023-02-13T04:53:22.893Z,70.35
2023-02-13T04:55:49.781Z,70.33
2023-02-13T04:58:18.047Z,69.97
2023-02-13T05:00:44.764Z,70.00
2023-02-13T05:03:12.757Z,69.54
2023-02-13T05:05:40.158Z,69.61
2023-02-13T05:08:10.503Z,69.26
2023-02-13T05:10:37.563Z,69.64
2023-02-13T05:13:06.635Z,69.59
2023-02-13T05:15:35.506Z,69.66
2023-02-13T05:18:02.452Z,69.90
2023-02-13T05:20:29.829Z,69.80
2023-02-13T05:23:16.563Z,70.08
2023-02-13T05:25:44.435Z,69.90
2023-02-13T05:28:29.770Z,70.04
2023-02-13T05:30:57.358Z,69.87
2023-02-13T05:33:25.324Z,69.82
2023-02-13T05:35:53.657Z,69.68
2023-02-13T05:38:20.688Z,69.32
2023-02-13T05:43:52.325Z,69.02
2023-02-13T05:46:21.665Z,69.00
2023-02-13T05:48:48.974Z,68.83
2023-02-13T05:51:16.659Z,68.98
2023-02-13T05:53:44.448Z,68.65
2023-02-13T05:56:11.631Z,68.75
2023-02-13T05:58:38.500Z,68.54
2023-02-13T06:01:06.578Z,68.43
2023-02-13T06:03:34.157Z,68.10
2023-02-13T06:06:04.205Z,67.41
2023-02-13T06:08:31.292Z,67.34
2023-02-13T06:11:03.023Z,66.62
2023-02-13T06:13:30.714Z,66.09
2023-02-13T06:15:57.533Z,65.27
2023-02-13T06:18:24.388Z,64.73
2023-02-13T06:20:51.806Z,64.41
2023-02-13T06:23:18.846Z,63.97
2023-02-13T06:25:48.114Z,62.21
2023-02-13T06:28:17.731Z,60.85
2023-02-13T06:30:45.027Z,58.87
2023-02-13T06:33:13.407Z,57.37
2023-02-13T06:35:45.012Z,56.82
2023-02-13T06:38:12.190Z,55.93
2023-02-13T06:40:40.047Z,54.84
2023-02-13T06:43:10.023Z,54.67
2023-02-13T06:45:37.857Z,55.16
2023-02-13T06:48:05.218Z,55.45
2023-02-13T06:50:34.238Z,55.87
2023-02-13T06:53:02.764Z,55.65
2023-02-13T06:55:30.241Z,56.12
2023-02-13T06:57:57.601Z,56.59
2023-02-13T07:00:27.191Z,56.88
2023-02-13T07:02:55.052Z,57.17
2023-02-13T07:05:22.406Z,57.46
2023-02-13T07:07:49.513Z,57.51
2023-02-13T07:10:20.146Z,57.51
2023-02-13T07:13:03.729Z,57.58
2023-02-13T07:15:33.064Z,57.95
2023-02-13T07:18:01.117Z,58.25
2023-02-13T07:20:28.961Z,58.18
2023-02-13T07:23:01.075Z,58.31
2023-02-13T07:25:29.098Z,58.40
2023-02-13T07:28:06.195Z,58.27
2023-02-13T07:30:35.063Z,58.59
2023-02-13T07:33:03.242Z,58.63
2023-02-13T07:35:31.597Z,58.72
2023-02-13T07:38:00.232Z,58.60
2023-02-13T07:40:27.287Z,58.42
2023-02-13T07:42:54.351Z,58.52
2023-02-13T07:45:21.859Z,58.57
2023-02-13T07:47:48.678Z,58.63
2023-02-13T07:50:17.494Z,58.59
2023-02-13T07:52:44.673Z,58.71
2023-02-13T07:55:12.343Z,58.62
2023-02-13T07:57:40.311Z,58.68
2023-02-13T08:00:09.234Z,58.69
2023-02-13T08:02:40.264Z,59.11
2023-02-13T08:05:07.587Z,58.62
2023-02-13T08:07:35.574Z,58.38
2023-02-13T08:10:25.831Z,57.80
2023-02-13T08:12:53.591Z,57.18
2023-02-13T08:15:20.767Z,56.64
2023-02-13T08:17:50.114Z,56.04
2023-02-13T08:20:18.297Z,55.98
2023-02-13T08:22:45.151Z,55.34
2023-02-13T08:25:12.150Z,55.54
2023-02-13T08:27:39.085Z,55.45
2023-02-13T08:30:10.313Z,55.22
2023-02-13T08:32:53.200Z,54.87
2023-02-13T08:35:26.244Z,54.44
2023-02-13T08:37:54.601Z,54.16
2023-02-13T08:40:24.495Z,53.52
2023-02-13T08:42:59.382Z,53.40
2023-02-13T08:45:26.387Z,53.82
2023-02-13T08:48:00.383Z,53.75
2023-02-13T08:50:28.734Z,53.23
2023-02-13T08:52:58.103Z,52.83
2023-02-13T08:55:27.164Z,52.97
2023-02-13T08:57:55.925Z,52.95
2023-02-13T09:00:23.587Z,52.62
2023-02-13T09:02:50.631Z,51.59
2023-02-13T09:05:17.599Z,50.31
2023-02-13T09:07:44.620Z,49.94
2023-02-13T09:10:11.660Z,48.62
2023-02-13T09:12:38.709Z,48.42
2023-02-13T09:15:08.407Z,47.74
2023-02-13T09:17:35.639Z,47.32
2023-02-13T09:20:02.909Z,47.05
2023-02-13T09:22:30.087Z,47.03
2023-02-13T09:24:58.879Z,47.15
2023-02-13T09:27:25.707Z,47.26
2023-02-13T09:29:53.029Z,46.96
2023-02-13T09:32:20.792Z,46.66
2023-02-13T09:34:48.701Z,47.04
2023-02-13T09:37:16.105Z,47.24
2023-02-13T09:39:43.124Z,47.26
2023-02-13T09:42:31.256Z,47.75
2023-02-13T09:45:02.883Z,47.90
2023-02-13T09:47:37.306Z,48.07
2023-02-13T09:50:23.475Z,47.54
2023-02-13T09:52:52.174Z,47.19
2023-02-13T09:55:39.587Z,46.90
2023-02-13T09:58:20.411Z,46.33
2023-02-13T10:00:56.097Z,46.03
2023-02-13T10:03:40.314Z,45.63
2023-02-13T10:06:49.916Z,44.41
2023-02-13T10:09:23.698Z,44.42
2023-02-13T10:12:24.347Z,43.95
2023-02-13T10:15:04.608Z,43.24
2023-02-13T10:18:12.319Z,42.76
2023-02-13T10:20:53.016Z,42.11
2023-02-13T10:23:29.606Z,41.53
2023-02-13T10:26:01.492Z,41.00
2023-02-13T10:28:47.919Z,41.25
2023-02-13T10:31:17.556Z,41.65
2023-02-13T10:33:53.672Z,41.50
2023-02-13T10:36:34.191Z,41.31
2023-02-13T10:41:54.210Z,42.20
2023-02-13T10:44:40.267Z,42.25
2023-02-13T10:47:22.351Z,42.34
2023-02-13T10:49:57.698Z,42.67
2023-02-13T10:52:44.423Z,43.30
2023-02-13T10:55:19.255Z,43.85
2023-02-13T10:58:09.674Z,44.41
2023-02-13T11:00:53.264Z,44.77
2023-02-13T11:03:25.391Z,45.58
2023-02-13T11:06:00.878Z,45.89
2023-02-13T11:08:45.605Z,46.33
2023-02-13T11:11:38.941Z,46.63
2023-02-13T11:14:19.633Z,46.82
2023-02-13T11:16:58.530Z,47.13
2023-02-13T11:19:51.397Z,47.25
2023-02-13T11:22:35.896Z,47.62
2023-02-13T11:25:17.066Z,48.16
2023-02-13T11:27:45.340Z,47.94
2023-02-13T11:30:28.112Z,48.13
2023-02-13T11:33:01.476Z,48.11
2023-02-13T11:35:30.528Z,48.28
2023-02-13T11:38:11.368Z,48.62
2023-02-13T11:40:38.897Z,48.41
2023-02-13T11:43:06.240Z,48.76
2023-02-13T11:45:33.894Z,48.88
2023-02-13T11:48:01.272Z,49.27
2023-02-13T11:50:34.778Z,48.68
2023-02-13T11:53:25.235Z,48.45
2023-02-13T11:56:05.335Z,48.55
2023-02-13T11:58:32.872Z,48.47
2023-02-13T12:01:07.743Z,48.56
2023-02-13T12:03:35.701Z,48.70
2023-02-13T12:06:07.145Z,48.74
2023-02-13T12:08:37.445Z,48.92
2023-02-13T12:11:31.008Z,49.07
2023-02-13T12:13:59.341Z,48.82
2023-02-13T12:16:40.974Z,48.33
2023-02-13T12:19:13.704Z,48.47
2023-02-13T12:22:06.547Z,48.62
2023-02-13T12:24:57.388Z,48.49
2023-02-13T12:27:48.764Z,49.03
2023-02-13T12:30:49.200Z,49.60
2023-02-13T12:33:43.631Z,49.65
2023-02-13T12:36:22.927Z,49.92
2023-02-13T12:39:06.759Z,50.41
2023-02-13T12:42:10.687Z,50.65
2023-02-13T12:44:41.506Z,50.98
2023-02-13T12:47:35.396Z,51.31
2023-02-13T12:51:00.166Z,51.68
2023-02-13T12:53:40.445Z,51.70
2023-02-13T12:56:37.844Z,51.98
2023-02-13T12:59:07.011Z,52.18
2023-02-13T13:01:52.291Z,52.54
2023-02-13T13:04:44.557Z,52.42
2023-02-13T13:07:20.103Z,52.44
2023-02-13T13:10:06.734Z,52.76
2023-02-13T13:12:55.976Z,52.93
2023-02-13T13:15:31.421Z,52.96
2023-02-13T13:18:02.445Z,53.00
2023-02-13T13:20:55.449Z,53.27
2023-02-13T13:23:32.439Z,53.46
2023-02-13T13:26:15.590Z,53.68
2023-02-13T13:28:46.520Z,54.23
2023-02-13T13:31:17.917Z,54.74
2023-02-13T13:33:45.836Z,55.08
2023-02-13T13:36:34.174Z,54.95
2023-02-13T13:39:26.143Z,55.25
2023-02-13T13:42:27.630Z,55.43
2023-02-13T13:45:01.972Z,55.56
2023-02-13T13:48:03.873Z,55.72
2023-02-13T13:50:35.411Z,55.87
2023-02-13T13:53:13.005Z,56.14
2023-02-13T13:55:46.526Z,56.35
2023-02-13T13:58:34.471Z,56.53
2023-02-13T14:01:30.025Z,56.55
2023-02-13T14:03:59.564Z,56.80
2023-02-13T14:06:45.169Z,56.95
2023-02-13T14:09:59.167Z,57.27
2023-02-13T14:12:29.538Z,57.52
2023-02-13T14:14:57.547Z,57.57
2023-02-13T14:17:44.050Z,57.71
2023-02-13T14:20:54.202Z,57.99
2023-02-13T14:23:32.530Z,58.07
2023-02-13T14:26:09.776Z,58.32
2023-02-13T14:28:39.006Z,58.46
2023-02-13T14:31:23.235Z,58.63
2023-02-13T14:34:20.092Z,58.70
2023-02-13T14:37:20.415Z,58.92
2023-02-13T14:40:29.339Z,59.00
2023-02-13T14:43:16.346Z,59.30
2023-02-13T14:45:57.121Z,59.43
2023-02-13T14:48:49.755Z,59.50
2023-02-13T14:51:28.148Z,59.45
2023-02-13T14:53:58.757Z,59.44
2023-02-13T14:56:25.824Z,59.54
2023-02-13T14:59:09.927Z,59.59
2023-02-13T15:01:58.010Z,59.59
2023-02-13T15:04:42.318Z,59.60
2023-02-13T15:07:23.772Z,59.79
2023-02-13T15:09:52.975Z,60.04
2023-02-13T15:12:36.244Z,59.97
2023-02-13T15:15:26.039Z,60.05
2023-02-13T15:18:01.417Z,60.20
2023-02-13T15:20:31.850Z,60.17
2023-02-13T15:23:01.760Z,60.23
2023-02-13T15:25:37.288Z,60.27
2023-02-13T15:28:08.941Z,60.32
2023-02-13T15:30:36.893Z,60.45
2023-02-13T15:33:20.293Z,60.39
2023-02-13T15:35:56.887Z,60.57
2023-02-13T15:38:24.818Z,60.65
2023-02-13T15:40:57.873Z,60.87
2023-02-13T15:43:35.132Z,60.93
2023-02-13T15:46:07.949Z,61.13
2023-02-13T15:48:35.322Z,61.38
2023-02-13T15:51:03.387Z,61.51
2023-02-13T15:53:31.279Z,61.80
2023-02-13T15:56:03.783Z,61.97
2023-02-13T15:58:34.108Z,62.10
2023-02-13T16:01:06.869Z,62.24
2023-02-13T16:03:35.644Z,62.36
2023-02-13T16:06:05.458Z,62.48
2023-02-13T16:08:38.829Z,62.58
2023-02-13T16:11:16.474Z,62.73
2023-02-13T16:14:01.369Z,62.87
2023-02-13T16:16:34.744Z,62.93
2023-02-13T16:19:02.479Z,62.97
2023-02-13T16:21:34.059Z,63.23
2023-02-13T16:24:03.900Z,63.24
2023-02-13T16:26:30.998Z,63.29
2023-02-13T16:28:58.681Z,63.43
2023-02-13T16:31:26.157Z,63.48
2023-02-13T16:33:54.285Z,63.58
2023-02-13T16:36:31.045Z,63.68
2023-02-13T16:39:23.618Z,63.79
2023-02-13T16:42:04.896Z,63.93
2023-02-13T16:44:47.441Z,63.96
2023-02-13T16:50:19.949Z,64.09
2023-02-13T16:52:47.860Z,64.11
2023-02-13T16:55:15.313Z,64.16
2023-02-13T16:57:43.971Z,64.22
2023-02-13T17:00:19.735Z,64.27
2023-02-13T17:05:47.573Z,64.09
2023-02-13T17:08:17.072Z,64.02
2023-02-13T17:11:05.567Z,63.79
2023-02-13T17:13:33.683Z,63.73
2023-02-13T17:16:01.186Z,63.80
2023-02-13T17:18:34.768Z,63.63
2023-02-13T17:21:02.480Z,63.63
2023-02-13T17:23:29.813Z,63.79
2023-02-13T17:25:58.490Z,64.01
2023-02-13T17:28:27.067Z,64.27
2023-02-13T17:30:56.152Z,64.46
2023-02-13T17:33:28.251Z,64.75
2023-02-13T17:35:56.086Z,64.87
2023-02-13T17:38:24.302Z,65.05
2023-02-13T17:40:52.232Z,65.32
2023-02-13T17:43:20.214Z,65.41
2023-02-13T17:45:50.768Z,65.53
2023-02-13T17:48:23.845Z,65.67
2023-02-13T17:50:51.837Z,65.81
2023-02-13T17:53:29.944Z,65.87
2023-02-13T17:56:00.921Z,66.04
2023-02-13T18:01:21.778Z,66.28
2023-02-13T18:03:50.085Z,66.08
2023-02-13T18:06:17.114Z,66.10
2023-02-13T18:08:44.928Z,66.28
2023-02-13T18:11:14.375Z,66.08
2023-02-13T18:13:47.769Z,66.16
2023-02-13T18:16:15.594Z,66.12
2023-02-13T18:18:44.238Z,66.38
2023-02-13T18:21:13.766Z,66.63
2023-02-13T18:23:42.031Z,66.77
2023-02-13T18:26:10.263Z,67.04
2023-02-13T18:28:40.147Z,67.23
2023-02-13T18:31:29.773Z,67.55
2023-02-13T18:34:01.247Z,67.81
2023-02-13T18:36:32.038Z,67.93
2023-02-13T18:38:59.132Z,68.32
2023-02-13T18:41:28.456Z,68.66
2023-02-13T18:43:58.055Z,68.81
2023-02-13T18:46:26.798Z,69.04
2023-02-13T18:48:55.272Z,69.17
2023-02-13T18:51:24.230Z,69.11
2023-02-13T18:54:06.879Z,69.03
2023-02-13T18:56:38.016Z,69.14
2023-02-13T18:59:18.696Z,69.23
2023-02-13T19:01:46.513Z,69.28
2023-02-13T19:04:20.109Z,69.55
2023-02-13T19:06:49.780Z,69.68
2023-02-13T19:09:20.823Z,69.96
2023-02-13T19:11:49.936Z,70.23
2023-02-13T19:14:18.549Z,70.42
2023-02-13T19:16:56.681Z,70.81
2023-02-13T19:19:48.511Z,71.08
2023-02-13T19:22:15.879Z,71.39
2023-02-13T19:24:42.985Z,71.46
2023-02-13T19:27:10.811Z,71.63
2023-02-13T19:29:39.219Z,71.82
2023-02-13T19:32:09.012Z,71.85
2023-02-13T19:34:38.692Z,71.92
2023-02-13T19:37:35.784Z,71.98
2023-02-13T19:40:12.758Z,72.18
2023-02-13T19:42:40.533Z,72.13
2023-02-13T19:45:09.625Z,72.33
2023-02-13T19:47:39.848Z,72.26
2023-02-13T19:50:07.186Z,72.57
2023-02-13T19:52:34.317Z,72.66
2023-02-13T19:55:01.914Z,72.82
2023-02-13T19:57:29.435Z,72.77
2023-02-13T20:00:19.089Z,72.92
2023-02-13T20:02:48.174Z,72.94
2023-02-13T20:05:16.304Z,72.77
2023-02-13T20:07:44.521Z,72.81
2023-02-13T20:10:14.049Z,72.98
2023-02-13T20:12:41.428Z,73.19
2023-02-13T20:15:10.012Z,73.56
2023-02-13T20:17:40.900Z,73.71
2023-02-13T20:20:09.321Z,73.91
2023-02-13T20:22:39.011Z,74.08
2023-02-13T20:25:10.655Z,74.27
2023-02-13T20:27:42.652Z,74.28
2023-02-13T20:30:14.037Z,74.25
2023-02-13T20:32:43.785Z,74.19
2023-02-13T20:35:12.041Z,74.27
2023-02-13T20:37:39.510Z,74.37
2023-02-13T20:40:09.977Z,74.46
2023-02-13T20:42:38.038Z,74.69
2023-02-13T20:45:06.725Z,74.92
2023-02-13T20:47:34.818Z,75.07
2023-02-13T20:50:03.588Z,75.43
2023-02-13T20:52:34.335Z,75.19
2023-02-13T20:55:03.644Z,75.47
2023-02-13T20:57:35.620Z,75.75
2023-02-13T21:00:05.005Z,75.51
2023-02-13T21:02:33.317Z,75.56
2023-02-13T21:05:01.016Z,75.67
2023-02-13T21:07:31.800Z,76.07
2023-02-13T21:09:59.032Z,76.20
2023-02-13T21:12:27.486Z,76.43
2023-02-13T21:14:55.515Z,76.85
2023-02-13T21:17:23.047Z,77.09
2023-02-13T21:19:50.338Z,77.14
2023-02-13T21:22:17.849Z,77.30
2023-02-13T21:24:52.245Z,77.57
2023-02-13T21:27:21.943Z,77.58
2023-02-13T21:29:51.045Z,77.48
2023-02-13T21:32:20.744Z,77.50
2023-02-13T21:34:47.886Z,77.71
2023-02-13T21:37:15.024Z,77.85
2023-02-13T21:39:42.086Z,77.89
2023-02-13T21:42:25.619Z,77.83
2023-02-13T21:44:53.497Z,77.71
2023-02-13T21:47:21.075Z,77.85
2023-02-13T21:49:48.683Z,77.73
2023-02-13T21:52:18.223Z,77.86
2023-02-13T21:54:45.351Z,77.71
2023-02-13T21:57:13.311Z,77.69
2023-02-13T21:59:40.687Z,77.67
2023-02-13T22:02:08.870Z,77.50
2023-02-13T22:04:41.347Z,77.38
2023-02-13T22:07:10.206Z,77.71
2023-02-13T22:09:39.148Z,77.98
2023-02-13T22:12:06.131Z,78.25
2023-02-13T22:14:34.536Z,78.27
2023-02-13T22:17:02.641Z,78.22
2023-02-13T22:19:34.314Z,78.24
2023-02-13T22:22:02.674Z,78.28
2023-02-13T22:24:29.925Z,78.30
2023-02-13T22:26:58.226Z,78.21
2023-02-13T22:29:26.684Z,78.19
2023-02-13T22:31:53.934Z,78.33
2023-02-13T22:34:26.394Z,78.32
2023-02-13T22:36:55.969Z,78.19
2023-02-13T22:39:24.393Z,78.36
2023-02-13T22:41:56.686Z,78.40
2023-02-13T22:44:24.053Z,78.14
2023-02-13T22:46:51.105Z,78.06
2023-02-13T22:49:17.865Z,77.93
2023-02-13T22:51:45.157Z,77.73
2023-02-13T22:54:13.343Z,77.69
2023-02-13T22:56:43.854Z,77.64
2023-02-13T22:59:14.283Z,77.65
2023-02-13T23:01:43.264Z,77.83
2023-02-13T23:04:11.678Z,77.86
2023-02-13T23:06:42.877Z,77.91
2023-02-13T23:09:11.246Z,77.77
2023-02-13T23:11:57.164Z,77.78
2023-02-13T23:14:25.309Z,77.80
2023-02-13T23:17:12.023Z,77.88
2023-02-13T23:19:41.955Z,77.83
2023-02-13T23:22:12.012Z,77.99
2023-02-13T23:24:39.678Z,78.05
2023-02-13T23:27:07.510Z,78.22
2023-02-13T23:29:34.737Z,78.23
2023-02-13T23:32:11.398Z,78.41
2023-02-13T23:34:39.383Z,78.34
2023-02-13T23:37:06.428Z,78.44
2023-02-13T23:39:33.606Z,78.30
2023-02-13T23:42:01.328Z,78.29
2023-02-13T23:44:28.246Z,78.18
2023-02-13T23:46:56.389Z,78.12
2023-02-13T23:49:25.033Z,78.28
2023-02-13T23:51:52.195Z,78.18
2023-02-13T23:54:22.270Z,78.44
2023-02-13T23:56:50.293Z,78.46
2023-02-13T23:59:17.785Z,78.52
